createdAt,value
2023-01-05T00:00:28.619Z,43.83
2023-01-05T00:01:27.572Z,41.89
2023-01-05T00:02:28.589Z,40.61
2023-01-05T00:03:27.552Z,40.12
2023-01-05T00:04:27.604Z,52.53
2023-01-05T00:05:27.525Z,40.28
2023-01-05T00:06:27.523Z,42.06
2023-01-05T00:07:27.507Z,40.28
2023-01-05T00:08:31.568Z,40.12
2023-01-05T00:09:29.487Z,39.16
2023-01-05T00:10:27.488Z,39.48
2023-01-05T00:11:27.481Z,47.21
2023-01-05T00:12:27.469Z,44.63
2023-01-05T00:13:28.157Z,41.41
2023-01-05T00:14:28.445Z,50.92
2023-01-05T00:15:27.458Z,55.75
2023-01-05T00:16:27.435Z,44.31
2023-01-05T00:17:28.096Z,39.48
2023-01-05T00:18:27.426Z,44.47
2023-01-05T00:19:28.186Z,39.80
2023-01-05T00:20:27.398Z,43.34
2023-01-05T00:21:27.392Z,49.15
2023-01-05T00:22:28.188Z,43.67
2023-01-05T00:23:29.182Z,52.53
2023-01-05T00:24:27.370Z,47.21
2023-01-05T00:28:00.050Z,37.06
2023-01-05T00:29:01.905Z,45.44
2023-01-05T00:30:01.143Z,47.86
2023-01-05T00:31:01.935Z,50.27
2023-01-05T00:32:01.147Z,42.86
2023-01-05T00:33:10.019Z,38.99
2023-01-05T00:34:01.091Z,39.80
2023-01-05T00:35:01.084Z,40.12
2023-01-05T00:36:01.091Z,38.83
2023-01-05T00:37:01.139Z,45.28
2023-01-05T00:38:01.928Z,41.73
2023-01-05T00:39:02.921Z,40.61
2023-01-05T00:40:01.049Z,40.28
2023-01-05T00:41:01.040Z,42.06
2023-01-05T00:44:08.354Z,39.32
2023-01-05T00:45:10.338Z,38.83
2023-01-05T00:46:09.480Z,38.19
2023-01-05T00:47:09.428Z,39.64
2023-01-05T00:48:09.429Z,46.73
2023-01-05T00:49:09.415Z,52.37
2023-01-05T00:50:11.322Z,52.69
2023-01-05T00:51:09.397Z,40.93
2023-01-05T00:52:10.323Z,40.28
2023-01-05T00:53:09.381Z,41.89
2023-01-05T00:54:09.365Z,41.57
2023-01-05T00:55:09.375Z,42.38
2023-01-05T00:56:09.352Z,45.60
2023-01-05T00:57:09.360Z,45.60
2023-01-05T00:58:09.333Z,39.80
2023-01-05T00:59:11.343Z,39.96
2023-01-05T01:00:09.351Z,40.61
2023-01-05T01:01:11.905Z,42.86
2023-01-05T01:02:09.356Z,46.25
2023-01-05T01:03:13.301Z,42.54
2023-01-05T01:04:10.286Z,40.93
2023-01-05T01:05:10.311Z,39.48
2023-01-05T01:06:09.827Z,46.08
2023-01-05T01:07:09.265Z,42.06
2023-01-05T01:08:09.300Z,46.25
2023-01-05T01:09:09.254Z,43.18
2023-01-05T01:10:09.853Z,44.79
2023-01-05T01:11:09.238Z,41.25
2023-01-05T01:12:09.243Z,42.38
2023-01-05T01:13:09.848Z,47.05
2023-01-05T01:14:09.216Z,43.34
2023-01-05T01:15:09.197Z,41.89
2023-01-05T01:16:09.240Z,49.79
2023-01-05T01:17:09.824Z,45.28
2023-01-05T01:18:09.188Z,48.82
2023-01-05T01:19:09.165Z,48.34
2023-01-05T01:20:09.178Z,40.61
2023-01-05T01:21:09.158Z,40.28
2023-01-05T01:22:09.137Z,42.86
2023-01-05T01:23:09.131Z,40.44
2023-01-05T01:24:09.118Z,46.41
2023-01-05T01:25:15.730Z,40.12
2023-01-05T01:26:09.108Z,40.12
2023-01-05T01:27:09.107Z,39.80
2023-01-05T01:28:09.098Z,42.70
2023-01-05T01:29:09.088Z,42.54
2023-01-05T01:30:10.843Z,46.57
2023-01-05T01:31:09.854Z,45.12
2023-01-05T01:32:10.747Z,45.60
2023-01-05T01:33:11.772Z,43.34
2023-01-05T01:34:09.048Z,44.79
2023-01-05T01:35:09.765Z,42.54
2023-01-05T01:36:09.041Z,43.34
2023-01-05T01:37:09.024Z,40.93
2023-01-05T01:38:10.751Z,40.44
2023-01-05T01:39:09.015Z,40.44
2023-01-05T01:40:09.016Z,46.08
2023-01-05T01:41:09.000Z,45.60
2023-01-05T01:42:09.011Z,43.51
2023-01-05T01:43:08.972Z,43.34
2023-01-05T01:44:08.967Z,39.48
2023-01-05T01:45:08.959Z,48.66
2023-01-05T01:46:09.001Z,41.41
2023-01-05T01:47:08.960Z,39.80
2023-01-05T01:48:09.836Z,40.44
2023-01-05T01:49:08.951Z,42.54
2023-01-05T01:50:08.930Z,43.83
2023-01-05T01:51:08.926Z,41.89
2023-01-05T01:52:08.903Z,53.66
2023-01-05T01:53:08.910Z,53.50
2023-01-05T01:54:08.892Z,42.06
2023-01-05T01:55:08.886Z,38.35
2023-01-05T01:56:08.884Z,37.87
2023-01-05T01:57:08.886Z,39.32
2023-01-05T01:58:08.863Z,46.73
2023-01-05T01:59:08.863Z,44.31
2023-01-05T02:00:08.828Z,43.51
2023-01-05T02:01:08.930Z,38.19
2023-01-05T02:02:08.953Z,39.64
2023-01-05T02:03:08.822Z,43.18
2023-01-05T02:04:09.835Z,47.86
2023-01-05T02:05:08.797Z,43.99
2023-01-05T02:06:08.793Z,45.92
2023-01-05T02:07:08.785Z,40.61
2023-01-05T02:08:08.779Z,43.51
2023-01-05T02:09:08.770Z,40.12
2023-01-05T02:10:08.783Z,43.67
2023-01-05T02:11:08.751Z,39.80
2023-01-05T02:12:08.736Z,39.80
2023-01-05T02:13:08.748Z,39.80
2023-01-05T02:14:08.730Z,39.64
2023-01-05T02:15:08.726Z,40.28
2023-01-05T02:16:09.418Z,38.83
2023-01-05T02:17:08.781Z,40.77
2023-01-05T02:18:08.733Z,39.64
2023-01-05T02:19:08.694Z,38.51
2023-01-05T02:20:08.673Z,40.44
2023-01-05T02:21:14.921Z,38.99
2023-01-05T02:22:10.683Z,39.48
2023-01-05T02:23:08.670Z,40.44
2023-01-05T02:24:08.653Z,38.67
2023-01-05T02:25:08.642Z,40.77
2023-01-05T02:26:08.636Z,44.96
2023-01-05T02:27:09.316Z,43.34
2023-01-05T02:28:08.614Z,40.61
2023-01-05T02:29:12.265Z,43.02
2023-01-05T02:30:08.603Z,47.37
2023-01-05T02:31:08.679Z,46.73
2023-01-05T02:32:08.584Z,38.83
2023-01-05T02:33:08.606Z,38.19
2023-01-05T02:34:08.586Z,38.83
2023-01-05T02:35:08.577Z,42.22
2023-01-05T02:36:08.556Z,39.16
2023-01-05T02:37:08.556Z,42.38
2023-01-05T02:38:08.543Z,41.89
2023-01-05T02:39:08.535Z,38.83
2023-01-05T02:40:08.524Z,39.96
2023-01-05T02:41:08.515Z,43.02
2023-01-05T02:42:08.524Z,44.63
2023-01-05T02:43:08.520Z,44.96
2023-01-05T02:44:08.547Z,40.44
2023-01-05T02:45:08.521Z,40.12
2023-01-05T02:46:08.586Z,56.56
2023-01-05T02:47:08.489Z,39.64
2023-01-05T02:48:08.474Z,41.57
2023-01-05T02:49:08.458Z,38.35
2023-01-05T02:50:08.470Z,37.71
2023-01-05T02:51:08.447Z,44.63
2023-01-05T02:52:08.454Z,47.86
2023-01-05T02:53:09.386Z,45.44
2023-01-05T02:54:08.430Z,41.57
2023-01-05T02:55:08.416Z,44.63
2023-01-05T02:56:08.430Z,39.80
2023-01-05T02:57:08.398Z,40.28
2023-01-05T02:58:08.400Z,38.51
2023-01-05T02:59:08.433Z,38.19
2023-01-05T03:00:08.385Z,39.80
2023-01-05T03:01:08.485Z,38.67
2023-01-05T03:02:08.533Z,38.67
2023-01-05T03:03:08.430Z,42.86
2023-01-05T03:04:08.336Z,42.38
2023-01-05T03:05:08.349Z,40.93
2023-01-05T03:06:08.859Z,39.48
2023-01-05T03:07:08.338Z,39.96
2023-01-05T03:08:08.320Z,40.12
2023-01-05T03:09:08.321Z,41.09
2023-01-05T03:10:08.283Z,41.09
2023-01-05T03:11:08.280Z,46.89
2023-01-05T03:12:08.286Z,48.66
2023-01-05T03:13:08.268Z,45.28
2023-01-05T03:14:08.254Z,40.44
2023-01-05T03:15:08.267Z,42.38
2023-01-05T03:16:08.267Z,40.61
2023-01-05T03:17:08.781Z,43.67
2023-01-05T03:18:08.215Z,43.02
2023-01-05T03:19:08.206Z,40.61
2023-01-05T03:20:08.201Z,41.41
2023-01-05T03:21:08.206Z,41.41
2023-01-05T03:22:08.192Z,41.25
2023-01-05T03:23:08.180Z,44.31
2023-01-05T03:24:08.169Z,45.76
2023-01-05T03:25:08.168Z,44.79
2023-01-05T03:26:08.153Z,44.96
2023-01-05T03:27:08.150Z,55.11
2023-01-05T03:28:08.140Z,41.25
2023-01-05T03:29:08.131Z,40.77
2023-01-05T03:30:08.138Z,39.16
2023-01-05T03:31:08.174Z,41.41
2023-01-05T03:32:09.115Z,41.41
2023-01-05T03:33:08.104Z,40.61
2023-01-05T03:34:08.086Z,42.54
2023-01-05T03:35:08.089Z,45.92
2023-01-05T03:36:08.071Z,40.77
2023-01-05T03:37:08.077Z,41.41
2023-01-05T03:38:08.069Z,44.79
2023-01-05T03:39:09.065Z,46.57
2023-01-05T03:40:08.076Z,42.70
2023-01-05T03:41:08.034Z,44.31
2023-01-05T03:42:08.887Z,45.28
2023-01-05T03:43:08.018Z,46.89
2023-01-05T03:44:08.031Z,41.57
2023-01-05T03:45:08.016Z,45.28
2023-01-05T03:46:08.033Z,43.99
2023-01-05T03:47:08.022Z,43.02
2023-01-05T03:48:08.008Z,41.41
2023-01-05T03:49:07.977Z,43.02
2023-01-05T03:50:07.992Z,52.37
2023-01-05T03:51:08.007Z,52.37
2023-01-05T03:52:07.964Z,50.92
2023-01-05T03:53:07.981Z,43.34
2023-01-05T03:54:07.965Z,47.70
2023-01-05T03:55:07.944Z,43.67
2023-01-05T03:56:07.949Z,45.12
2023-01-05T03:57:07.922Z,47.21
2023-01-05T03:58:07.917Z,51.56
2023-01-05T03:59:07.912Z,50.43
2023-01-05T04:00:08.890Z,58.01
2023-01-05T04:01:07.997Z,58.17
2023-01-05T04:02:08.104Z,59.62
2023-01-05T04:03:07.995Z,54.62
2023-01-05T04:04:07.860Z,51.40
2023-01-05T04:05:07.844Z,53.50
2023-01-05T04:06:07.874Z,53.17
2023-01-05T04:07:07.830Z,52.05
2023-01-05T04:08:07.838Z,49.15
2023-01-05T04:09:07.828Z,48.66
2023-01-05T04:10:07.827Z,45.12
2023-01-05T04:11:07.807Z,54.95
2023-01-05T04:12:07.800Z,44.47
2023-01-05T04:13:07.827Z,49.79
2023-01-05T04:14:07.770Z,52.37
2023-01-05T04:15:07.779Z,54.14
2023-01-05T04:16:07.834Z,53.82
2023-01-05T04:17:07.765Z,55.27
2023-01-05T04:18:07.763Z,50.27
2023-01-05T04:19:07.761Z,52.53
2023-01-05T04:20:07.738Z,53.01
2023-01-05T04:21:07.738Z,58.81
2023-01-05T04:22:07.718Z,56.56
2023-01-05T04:23:07.718Z,57.85
2023-01-05T04:24:07.706Z,51.08
2023-01-05T04:25:07.703Z,49.31
2023-01-05T04:26:07.695Z,55.59
2023-01-05T04:27:07.685Z,48.50
2023-01-05T04:28:07.693Z,53.01
2023-01-05T04:29:07.659Z,56.72
2023-01-05T04:30:07.657Z,51.56
2023-01-05T04:31:07.696Z,55.59
2023-01-05T04:32:07.634Z,49.79
2023-01-05T04:33:08.372Z,44.47
2023-01-05T04:34:07.616Z,56.56
2023-01-05T04:35:11.221Z,55.91
2023-01-05T04:36:08.624Z,56.40
2023-01-05T04:37:08.296Z,57.20
2023-01-05T04:38:07.598Z,57.52
2023-01-05T04:39:07.576Z,57.20
2023-01-05T04:40:07.567Z,49.63
2023-01-05T04:41:07.557Z,50.27
2023-01-05T04:42:07.549Z,53.17
2023-01-05T04:43:07.549Z,56.24
2023-01-05T04:44:07.531Z,56.07
2023-01-05T04:45:07.535Z,50.92
2023-01-05T04:46:07.583Z,50.76
2023-01-05T04:47:07.516Z,52.05
2023-01-05T04:48:07.527Z,51.08
2023-01-05T04:49:07.509Z,47.86
2023-01-05T04:50:07.507Z,59.30
2023-01-05T04:51:07.552Z,60.10
2023-01-05T04:52:07.486Z,45.92
2023-01-05T04:53:07.491Z,53.17
2023-01-05T04:54:07.467Z,55.43
2023-01-05T04:55:07.474Z,60.91
2023-01-05T04:56:07.441Z,54.95
2023-01-05T04:57:07.438Z,48.50
2023-01-05T04:58:11.790Z,53.82
2023-01-05T04:59:08.436Z,56.07
2023-01-05T05:00:07.418Z,59.30
2023-01-05T05:01:07.446Z,60.10
2023-01-05T05:02:07.527Z,58.97
2023-01-05T05:03:07.535Z,55.27
2023-01-05T05:04:07.424Z,59.30
2023-01-05T05:05:07.383Z,55.43
2023-01-05T05:06:07.370Z,54.95
2023-01-05T05:07:07.428Z,50.60
2023-01-05T05:08:07.374Z,56.56
2023-01-05T05:09:07.360Z,55.11
2023-01-05T05:10:07.336Z,56.72
2023-01-05T05:11:07.339Z,47.05
2023-01-05T05:12:07.328Z,54.46
2023-01-05T05:13:07.319Z,57.20
2023-01-05T05:14:07.314Z,52.69
2023-01-05T05:15:07.332Z,57.85
2023-01-05T05:16:07.330Z,49.79
2023-01-05T05:17:07.316Z,57.04
2023-01-05T05:18:09.599Z,60.42
2023-01-05T05:19:08.274Z,59.94
2023-01-05T05:20:07.282Z,56.88
2023-01-05T05:21:07.256Z,58.65
2023-01-05T05:22:07.248Z,60.75
2023-01-05T05:23:08.251Z,54.95
2023-01-05T05:24:07.230Z,56.88
2023-01-05T05:25:07.227Z,60.91
2023-01-05T05:26:07.214Z,59.62
2023-01-05T05:27:07.200Z,60.42
2023-01-05T05:28:08.815Z,61.39
2023-01-05T05:29:07.186Z,56.72
2023-01-05T05:30:07.915Z,60.10
2023-01-05T05:31:07.234Z,61.55
2023-01-05T05:34:14.378Z,59.78
2023-01-05T05:35:13.711Z,58.65
2023-01-05T05:36:13.708Z,62.20
2023-01-05T05:37:14.377Z,61.55
2023-01-05T05:38:13.695Z,59.78
2023-01-05T05:39:13.709Z,56.24
2023-01-05T05:40:13.666Z,51.88
2023-01-05T05:41:13.660Z,50.76
2023-01-05T05:42:13.649Z,57.69
2023-01-05T05:43:14.748Z,60.26
2023-01-05T05:44:14.762Z,58.01
2023-01-05T05:45:14.744Z,57.85
2023-01-05T05:46:14.797Z,57.52
2023-01-05T05:47:14.708Z,59.78
2023-01-05T05:48:14.734Z,61.23
2023-01-05T05:49:14.704Z,59.62
2023-01-05T05:50:14.697Z,58.33
2023-01-05T05:51:14.700Z,62.52
2023-01-05T05:52:14.690Z,54.14
2023-01-05T05:53:14.669Z,60.42
2023-01-05T05:54:14.647Z,59.62
2023-01-05T05:55:14.646Z,57.69
2023-01-05T05:56:14.640Z,59.62
2023-01-05T05:57:14.631Z,59.62
2023-01-05T05:58:14.630Z,58.17
2023-01-05T05:59:14.610Z,55.91
2023-01-05T06:00:14.608Z,57.04
2023-01-05T06:01:14.628Z,59.46
2023-01-05T06:02:14.702Z,60.91
2023-01-05T06:03:14.694Z,61.07
2023-01-05T06:04:14.566Z,64.13
2023-01-05T06:05:14.568Z,59.30
2023-01-05T06:06:14.573Z,60.91
2023-01-05T06:07:14.581Z,56.56
2023-01-05T06:08:14.542Z,60.10
2023-01-05T06:09:14.547Z,59.78
2023-01-05T06:10:15.523Z,60.59
2023-01-05T06:11:14.517Z,63.00
2023-01-05T06:12:14.524Z,58.81
2023-01-05T06:13:14.500Z,55.59
2023-01-05T06:14:14.533Z,56.72
2023-01-05T06:15:14.491Z,58.49
2023-01-05T06:16:14.509Z,54.79
2023-01-05T06:17:14.463Z,58.81
2023-01-05T06:18:14.491Z,59.94
2023-01-05T06:19:14.472Z,61.87
2023-01-05T06:20:14.987Z,62.52
2023-01-05T06:21:14.453Z,61.55
2023-01-05T06:22:14.459Z,64.13
2023-01-05T06:23:14.439Z,61.55
2023-01-05T06:24:14.425Z,60.10
2023-01-05T06:25:14.422Z,58.01
2023-01-05T06:26:14.428Z,60.59
2023-01-05T06:27:14.415Z,54.62
2023-01-05T06:28:19.918Z,61.39
2023-01-05T06:29:16.401Z,58.81
2023-01-05T06:30:14.408Z,60.42
2023-01-05T06:31:14.410Z,54.95
2023-01-05T06:32:14.391Z,56.72
2023-01-05T06:33:14.366Z,59.46
2023-01-05T06:34:14.348Z,55.27
2023-01-05T06:35:14.332Z,57.36
2023-01-05T06:36:14.358Z,60.42
2023-01-05T06:37:14.325Z,60.42
2023-01-05T06:38:14.323Z,62.20
2023-01-05T06:39:14.633Z,63.00
2023-01-05T06:40:14.313Z,57.52
2023-01-05T06:41:14.293Z,60.59
2023-01-05T06:42:16.902Z,61.87
2023-01-05T06:43:16.015Z,60.75
2023-01-05T06:44:14.985Z,63.33
2023-01-05T06:45:14.268Z,58.97
2023-01-05T06:46:14.981Z,64.61
2023-01-05T06:47:15.260Z,65.26
2023-01-05T06:48:14.267Z,59.14
2023-01-05T06:49:14.223Z,58.49
2023-01-05T06:50:14.216Z,61.55
2023-01-05T06:51:14.220Z,59.30
2023-01-05T06:52:16.623Z,58.01
2023-01-05T06:53:15.219Z,58.33
2023-01-05T06:54:14.920Z,58.97
2023-01-05T06:55:14.192Z,59.62
2023-01-05T06:56:14.217Z,62.20
2023-01-05T06:57:14.181Z,64.13
2023-01-05T06:58:14.169Z,59.78
2023-01-05T06:59:14.154Z,57.20
2023-01-05T07:00:14.144Z,60.26
2023-01-05T07:01:14.292Z,60.91
2023-01-05T07:02:14.938Z,61.07
2023-01-05T07:03:14.112Z,60.59
2023-01-05T07:04:14.225Z,60.26
2023-01-05T07:05:14.104Z,55.75
2023-01-05T07:06:15.065Z,58.33
2023-01-05T07:07:15.108Z,60.10
2023-01-05T07:08:14.088Z,61.55
2023-01-05T07:09:14.077Z,58.49
2023-01-05T07:10:14.068Z,57.52
2023-01-05T07:11:14.062Z,63.00
2023-01-05T07:12:14.047Z,60.59
2023-01-05T07:13:14.041Z,56.24
2023-01-05T07:14:14.080Z,62.20
2023-01-05T07:15:14.075Z,60.75
2023-01-05T07:16:14.118Z,59.14
2023-01-05T07:17:14.014Z,59.94
2023-01-05T07:18:14.088Z,59.46
2023-01-05T07:19:14.025Z,60.59
2023-01-05T07:20:13.988Z,62.36
2023-01-05T07:21:13.970Z,60.42
2023-01-05T07:22:14.006Z,62.36
2023-01-05T07:23:13.950Z,62.36
2023-01-05T07:24:13.947Z,61.55
2023-01-05T07:25:13.941Z,61.71
2023-01-05T07:26:13.974Z,61.55
2023-01-05T07:27:13.939Z,60.75
2023-01-05T07:28:13.974Z,59.14
2023-01-05T07:29:13.974Z,62.84
2023-01-05T07:30:13.919Z,62.68
2023-01-05T07:31:13.925Z,57.69
2023-01-05T07:32:13.914Z,59.62
2023-01-05T07:33:13.933Z,64.29
2023-01-05T07:34:13.869Z,60.59
2023-01-05T07:35:13.857Z,65.10
2023-01-05T07:36:14.403Z,61.23
2023-01-05T07:37:13.864Z,57.52
2023-01-05T07:38:13.833Z,58.97
2023-01-05T07:39:14.409Z,60.91
2023-01-05T07:40:13.836Z,54.95
2023-01-05T07:41:13.812Z,60.75
2023-01-05T07:42:13.816Z,61.23
2023-01-05T07:43:13.795Z,61.87
2023-01-05T07:44:13.819Z,60.91
2023-01-05T07:45:13.780Z,58.65
2023-01-05T07:46:13.977Z,51.40
2023-01-05T07:47:14.410Z,56.40
2023-01-05T07:48:15.077Z,57.36
2023-01-05T07:49:13.749Z,58.65
2023-01-05T07:50:13.744Z,61.39
2023-01-05T07:51:14.432Z,62.68
2023-01-05T07:52:13.806Z,58.97
2023-01-05T07:53:13.731Z,60.59
2023-01-05T07:54:13.705Z,63.33
2023-01-05T07:55:18.620Z,61.23
2023-01-05T07:56:14.508Z,57.52
2023-01-05T07:57:16.498Z,60.10
2023-01-05T07:58:13.687Z,62.20
2023-01-05T07:59:13.694Z,61.87
2023-01-05T08:00:13.714Z,59.94
2023-01-05T08:01:13.801Z,60.59
2023-01-05T08:02:13.813Z,61.07
2023-01-05T08:03:13.717Z,61.71
2023-01-05T08:04:14.482Z,59.62
2023-01-05T08:05:13.702Z,60.91
2023-01-05T08:06:13.632Z,62.04
2023-01-05T08:07:13.611Z,60.10
2023-01-05T08:08:15.649Z,58.81
2023-01-05T08:09:14.605Z,58.17
2023-01-05T08:10:13.592Z,59.46
2023-01-05T08:11:13.571Z,59.62
2023-01-05T08:12:13.588Z,59.14
2023-01-05T08:13:13.595Z,60.59
2023-01-05T08:14:14.411Z,54.95
2023-01-05T08:15:13.557Z,58.97
2023-01-05T08:16:13.560Z,59.62
2023-01-05T08:17:13.542Z,61.23
2023-01-05T08:18:13.592Z,60.91
2023-01-05T08:19:13.542Z,62.52
2023-01-05T08:20:13.521Z,58.65
2023-01-05T08:21:13.527Z,62.20
2023-01-05T08:22:13.545Z,62.36
2023-01-05T08:23:13.498Z,59.14
2023-01-05T08:24:14.499Z,61.07
2023-01-05T08:25:13.480Z,59.30
2023-01-05T08:26:13.482Z,62.36
2023-01-05T08:27:13.475Z,60.91
2023-01-05T08:28:13.469Z,56.72
2023-01-05T08:29:13.460Z,58.49
2023-01-05T08:30:13.461Z,63.65
2023-01-05T08:31:13.452Z,62.68
2023-01-05T08:32:15.073Z,61.87
2023-01-05T08:33:13.415Z,61.07
2023-01-05T08:34:13.445Z,64.45
2023-01-05T08:35:13.407Z,59.78
2023-01-05T08:36:13.412Z,59.62
2023-01-05T08:37:13.935Z,61.55
2023-01-05T08:38:13.396Z,60.59
2023-01-05T08:39:13.458Z,56.56
2023-01-05T08:40:13.391Z,59.14
2023-01-05T08:41:13.360Z,60.26
2023-01-05T08:42:13.349Z,61.39
2023-01-05T08:43:13.357Z,63.49
2023-01-05T08:44:13.356Z,60.59
2023-01-05T08:45:13.351Z,58.97
2023-01-05T08:46:13.517Z,61.39
2023-01-05T08:47:13.316Z,61.39
2023-01-05T08:48:13.303Z,61.71
2023-01-05T08:49:13.295Z,61.39
2023-01-05T08:50:13.313Z,62.04
2023-01-05T08:51:13.292Z,60.91
2023-01-05T08:52:13.298Z,56.56
2023-01-05T08:53:13.271Z,60.91
2023-01-05T08:54:13.271Z,58.97
2023-01-05T08:55:13.264Z,63.65
2023-01-05T08:56:13.244Z,61.71
2023-01-05T08:57:13.281Z,61.55
2023-01-05T08:58:13.260Z,60.91
2023-01-05T08:59:13.921Z,60.42
2023-01-05T09:00:13.217Z,60.26
2023-01-05T09:01:13.358Z,62.68
2023-01-05T09:02:13.453Z,64.13
2023-01-05T09:03:13.256Z,62.36
2023-01-05T09:04:13.185Z,62.68
2023-01-05T09:05:13.195Z,62.04
2023-01-05T09:06:13.180Z,60.59
2023-01-05T09:07:13.200Z,60.91
2023-01-05T09:08:13.171Z,61.55
2023-01-05T09:09:13.152Z,61.55
2023-01-05T09:10:13.186Z,59.62
2023-01-05T09:11:13.105Z,60.42
2023-01-05T09:12:14.943Z,59.46
2023-01-05T09:13:13.105Z,59.62
2023-01-05T09:14:13.122Z,62.68
2023-01-05T09:15:13.118Z,59.14
2023-01-05T09:16:13.157Z,58.65
2023-01-05T09:17:13.137Z,60.75
2023-01-05T09:18:13.083Z,59.78
2023-01-05T09:19:13.059Z,60.59
2023-01-05T09:20:13.065Z,63.49
2023-01-05T09:21:13.048Z,63.33
2023-01-05T09:22:13.043Z,61.87
2023-01-05T09:23:13.028Z,64.13
2023-01-05T09:24:13.203Z,65.42
2023-01-05T09:25:13.026Z,65.90
2023-01-05T09:26:13.019Z,63.81
2023-01-05T09:27:13.016Z,60.75
2023-01-05T09:28:12.978Z,63.16
2023-01-05T09:29:13.008Z,63.16
2023-01-05T09:30:13.124Z,63.16
2023-01-05T09:31:13.013Z,61.87
2023-01-05T09:32:13.042Z,62.04
2023-01-05T09:33:12.968Z,60.59
2023-01-05T09:34:12.945Z,60.10
2023-01-05T09:35:12.926Z,60.91
2023-01-05T09:36:12.962Z,63.97
2023-01-05T09:37:12.941Z,62.36
2023-01-05T09:38:13.015Z,60.91
2023-01-05T09:39:13.481Z,63.16
2023-01-05T09:40:13.015Z,61.23
2023-01-05T09:41:12.949Z,61.07
2023-01-05T09:42:13.499Z,58.97
2023-01-05T09:43:12.874Z,58.17
2023-01-05T09:44:12.871Z,62.20
2023-01-05T09:45:12.887Z,59.62
2023-01-05T09:46:12.917Z,58.81
2023-01-05T09:47:13.828Z,58.01
2023-01-05T09:48:13.541Z,59.14
2023-01-05T09:49:12.872Z,60.10
2023-01-05T09:50:12.816Z,62.20
2023-01-05T09:51:12.823Z,63.65
2023-01-05T09:52:12.813Z,63.00
2023-01-05T09:53:12.785Z,59.94
2023-01-05T09:54:12.927Z,62.84
2023-01-05T09:55:12.789Z,64.78
2023-01-05T09:56:13.772Z,61.39
2023-01-05T09:57:13.456Z,57.69
2023-01-05T09:58:12.770Z,64.29
2023-01-05T09:59:14.540Z,58.81
2023-01-05T10:00:12.749Z,60.26
2023-01-05T10:01:12.761Z,63.00
2023-01-05T10:02:12.718Z,62.84
2023-01-05T10:03:29.279Z,60.59
2023-01-05T10:04:14.860Z,60.26
2023-01-05T10:05:12.929Z,59.94
2023-01-05T10:06:12.684Z,60.59
2023-01-05T10:07:13.691Z,59.14
2023-01-05T10:08:12.724Z,62.68
2023-01-05T10:09:12.648Z,58.81
2023-01-05T10:10:13.147Z,58.01
2023-01-05T10:11:13.531Z,60.26
2023-01-05T10:12:12.638Z,60.75
2023-01-05T10:13:12.657Z,60.10
2023-01-05T10:14:12.615Z,61.71
2023-01-05T10:15:12.625Z,59.78
2023-01-05T10:16:12.770Z,61.07
2023-01-05T10:17:39.864Z,60.42
2023-01-05T10:18:14.744Z,62.04
2023-01-05T10:19:12.609Z,59.94
2023-01-05T10:20:12.571Z,61.55
2023-01-05T10:21:13.592Z,64.61
2023-01-05T10:22:12.556Z,66.87
2023-01-05T10:23:13.463Z,63.81
2023-01-05T10:24:12.542Z,61.07
2023-01-05T10:25:12.561Z,59.94
2023-01-05T10:26:14.136Z,60.91
2023-01-05T10:27:27.870Z,59.78
2023-01-05T10:28:14.516Z,66.55
2023-01-05T10:29:12.500Z,62.84
2023-01-05T10:30:12.486Z,65.42
2023-01-05T10:31:13.616Z,62.04
2023-01-05T10:32:12.640Z,60.26
2023-01-05T10:33:26.448Z,62.04
2023-01-05T10:34:16.264Z,63.00
2023-01-05T10:35:33.852Z,62.84
2023-01-05T10:36:16.472Z,63.49
2023-01-05T10:37:12.458Z,62.68
2023-01-05T10:38:12.444Z,61.71
2023-01-05T10:39:12.411Z,60.26
2023-01-05T10:40:12.617Z,60.42
2023-01-05T10:41:12.405Z,60.75
2023-01-05T10:42:15.129Z,59.46
2023-01-05T10:43:12.390Z,60.42
2023-01-05T10:44:12.377Z,61.07
2023-01-05T10:45:12.386Z,61.87
2023-01-05T10:47:15.016Z,60.59
2023-01-05T10:48:14.069Z,61.55
2023-01-05T10:49:12.348Z,62.04
2023-01-05T10:50:12.361Z,60.91
2023-01-05T10:51:12.323Z,55.43
2023-01-05T10:52:12.312Z,61.07
2023-01-05T10:53:12.998Z,60.75
2023-01-05T10:54:13.095Z,60.26
2023-01-05T10:55:12.305Z,60.10
2023-01-05T10:56:13.069Z,61.87
2023-01-05T10:57:12.964Z,60.75
2023-01-05T10:58:12.403Z,60.59
2023-01-05T10:59:12.272Z,59.62
2023-01-05T11:00:12.271Z,61.23
2023-01-05T11:01:12.421Z,62.68
2023-01-05T11:02:12.399Z,61.39
2023-01-05T11:03:12.242Z,61.87
2023-01-05T11:04:34.362Z,63.49
2023-01-05T11:05:16.042Z,63.81
2023-01-05T11:06:12.216Z,62.68
2023-01-05T11:07:14.081Z,60.91
2023-01-05T11:08:12.958Z,60.91
2023-01-05T11:09:17.349Z,60.42
2023-01-05T11:10:15.481Z,59.14
2023-01-05T11:11:13.362Z,60.26
2023-01-05T11:12:12.181Z,61.39
2023-01-05T11:13:17.545Z,59.30
2023-01-05T11:14:12.176Z,60.26
2023-01-05T11:15:12.144Z,60.91
2023-01-05T11:16:12.234Z,60.59
2023-01-05T11:17:12.115Z,64.61
2023-01-05T11:18:12.139Z,61.55
2023-01-05T11:19:12.105Z,64.13
2023-01-05T11:22:24.973Z,60.42
2023-01-05T11:23:23.314Z,62.36
2023-01-05T11:24:23.325Z,63.33
2023-01-05T11:25:23.331Z,61.39
2023-01-05T11:26:23.329Z,64.29
2023-01-05T11:27:23.322Z,58.65
2023-01-05T11:28:23.393Z,61.23
2023-01-05T11:31:31.347Z,58.97
2023-01-05T11:32:31.269Z,61.87
2023-01-05T11:33:31.265Z,60.42
2023-01-05T11:34:31.236Z,61.71
2023-01-05T11:35:32.316Z,59.94
2023-01-05T11:36:32.324Z,62.68
2023-01-05T11:37:32.305Z,60.42
2023-01-05T11:38:33.230Z,60.91
2023-01-05T11:39:32.740Z,62.52
2023-01-05T11:40:32.290Z,61.39
2023-01-05T11:41:32.263Z,61.07
2023-01-05T11:42:33.296Z,62.84
2023-01-05T11:43:32.410Z,60.91
2023-01-05T11:44:32.253Z,60.59
2023-01-05T11:45:32.240Z,57.69
2023-01-05T11:46:32.285Z,60.75
2023-01-05T11:47:34.300Z,60.10
2023-01-05T11:48:33.226Z,63.16
2023-01-05T11:49:33.076Z,58.81
2023-01-05T11:50:32.702Z,60.59
2023-01-05T11:51:32.193Z,62.52
2023-01-05T11:52:32.225Z,61.07
2023-01-05T11:53:32.179Z,57.36
2023-01-05T11:54:32.180Z,61.07
2023-01-05T11:55:32.756Z,57.36
2023-01-05T11:56:35.154Z,59.30
2023-01-05T11:57:32.146Z,60.10
2023-01-05T11:58:32.141Z,60.10
2023-01-05T11:59:34.685Z,62.20
2023-01-05T12:00:32.179Z,60.26
2023-01-05T12:01:32.756Z,62.20
2023-01-05T12:02:32.215Z,61.07
2023-01-05T12:03:35.730Z,64.78
2023-01-05T12:04:32.657Z,60.75
2023-01-05T12:05:33.707Z,60.26
2023-01-05T12:06:34.080Z,59.94
2023-01-05T12:07:37.323Z,62.68
2023-01-05T12:08:32.058Z,58.01
2023-01-05T12:09:35.020Z,57.85
2023-01-05T12:10:34.636Z,56.88
2023-01-05T12:11:32.021Z,60.10
2023-01-05T12:12:32.643Z,60.75
2023-01-05T12:13:33.080Z,59.30
2023-01-05T12:14:32.218Z,55.11
2023-01-05T12:15:32.097Z,60.59
2023-01-05T12:16:32.037Z,60.26
2023-01-05T12:17:31.993Z,60.91
2023-01-05T12:18:31.967Z,63.49
2023-01-05T12:19:31.989Z,63.00
2023-01-05T12:20:31.964Z,64.45
2023-01-05T12:21:31.961Z,64.45
2023-01-05T12:22:31.938Z,62.68
2023-01-05T12:23:31.929Z,59.30
2023-01-05T12:24:38.890Z,60.91
2023-01-05T12:25:33.629Z,57.04
2023-01-05T12:26:34.632Z,61.07
2023-01-05T12:27:31.917Z,59.46
2023-01-05T12:28:41.611Z,59.78
2023-01-05T12:30:46.804Z,59.78
2023-01-05T12:33:44.380Z,60.10
2023-01-05T12:33:44.631Z,63.16
2023-01-05T12:34:36.640Z,62.04
2023-01-05T12:35:31.846Z,61.71
2023-01-05T12:36:31.816Z,60.91
2023-01-05T12:37:31.835Z,63.49
2023-01-05T12:38:32.159Z,60.10
2023-01-05T12:39:32.125Z,60.10
2023-01-05T12:40:34.750Z,58.65
2023-01-05T12:41:31.784Z,58.97
2023-01-05T12:42:33.633Z,61.87
2023-01-05T12:43:33.630Z,61.87
2023-01-05T12:44:31.755Z,64.29
2023-01-05T12:45:32.231Z,57.52
2023-01-05T12:46:32.823Z,57.36
2023-01-05T12:47:31.875Z,57.04
2023-01-05T12:48:31.734Z,60.59
2023-01-05T12:49:31.803Z,59.14
2023-01-05T12:50:31.703Z,60.75
2023-01-05T12:51:31.710Z,58.17
2023-01-05T12:52:31.697Z,60.26
2023-01-05T12:53:31.712Z,61.87
2023-01-05T12:54:32.662Z,60.10
2023-01-05T12:55:31.663Z,62.84
2023-01-05T12:56:31.653Z,60.42
2023-01-05T12:57:32.663Z,61.39
2023-01-05T12:58:31.637Z,56.88
2023-01-05T12:59:33.141Z,62.68
2023-01-05T13:00:31.665Z,60.10
2023-01-05T13:01:31.780Z,60.10
2023-01-05T13:02:31.682Z,59.78
2023-01-05T13:03:32.351Z,66.06
2023-01-05T13:04:38.907Z,61.55
2023-01-05T13:05:39.671Z,62.04
2023-01-05T13:06:31.571Z,62.20